Time;durP1;ratioP1;P1;durP2;ratioP2;P2;SDS_P1;SDS_P2;PMS_P1;PMS_P2;Temp;Humidity;BMP_temperature;BMP_pressure;BME280_temperature;BME280_humidity;BME280_pressure;Samples;Min_cycle;Max_cycle;Signal;HPM_P1;HPM_P2
2021/01/07 00:01:50;;;;;;;33.07;16.13;;;;;;;;;;5010665;28;20052;-80
2021/01/07 00:04:15;;;;;;;31.93;15.17;;;;;;;;;;5010806;28;20045;-79
2021/01/07 00:06:40;;;;;;;33.50;16.43;;;;;;;;;;5010533;28;20034;-80
2021/01/07 00:09:05;;;;;;;31.43;15.83;;;;;;;;;;5010447;28;20041;-80
2021/01/07 00:11:30;;;;;;;33.93;15.70;;;;;;;;;;5010198;28;20107;-80
2021/01/07 00:13:56;;;;;;;31.30;15.73;;;;;;;;;;5009981;28;20444;-80
2021/01/07 00:16:21;;;;;;;33.93;16.47;;;;;;;;;;5011601;28;20010;-80
2021/01/07 00:18:46;;;;;;;35.43;15.10;;;;;;;;;;5010170;28;20024;-80
2021/01/07 00:21:12;;;;;;;33.40;17.03;;;;;;;;;;5011292;28;20088;-80
2021/01/07 00:23:37;;;;;;;27.77;15.60;;;;;;;;;;5010120;28;20077;-80
2021/01/07 00:26:02;;;;;;;38.83;17.33;;;;;;;;;;5010091;28;20052;-80
2021/01/07 00:28:27;;;;;;;31.43;16.53;;;;;;;;;;5009838;28;20113;-80
2021/01/07 00:30:53;;;;;;;37.33;16.97;;;;;;;;;;5007613;28;20048;-80
2021/01/07 00:33:19;;;;;;;33.23;15.37;;;;;;;;;;5010451;28;20060;-80
2021/01/07 00:35:44;;;;;;;34.90;18.57;;;;;;;;;;5010086;28;20018;-80
2021/01/07 00:38:10;;;;;;;31.63;15.47;;;;;;;;;;5009993;28;20018;-80
2021/01/07 00:40:35;;;;;;;30.90;16.00;;;;;;;;;;5009775;28;20018;-80
2021/01/07 00:43:00;;;;;;;34.97;16.70;;;;;;;;;;5009850;28;20049;-80
2021/01/07 00:45:25;;;;;;;37.83;17.37;;;;;;;;;;5009860;28;20117;-80
2021/01/07 00:47:51;;;;;;;35.17;16.47;;;;;;;;;;5010232;28;20018;-79
2021/01/07 00:50:16;;;;;;;33.93;16.30;;;;;;;;;;5011500;28;20018;-80
2021/01/07 00:52:42;;;;;;;35.27;17.10;;;;;;;;;;5011522;28;20030;-80
2021/01/07 00:55:10;;;;;;;35.07;17.40;;;;;;;;;;5009746;28;20400;-80
2021/01/07 00:57:36;;;;;;;38.93;17.37;;;;;;;;;;5013424;28;20022;-80
2021/01/07 01:00:06;;;;;;;35.93;15.83;;;;;;;;;;5013764;28;20530;-80
2021/01/07 01:02:31;;;;;;;35.20;16.33;;;;;;;;;;5014069;28;20022;-80
2021/01/07 01:04:56;;;;;;;34.73;15.73;;;;;;;;;;5014505;28;20032;-80
2021/01/07 01:07:21;;;;;;;33.77;16.57;;;;;;;;;;5015129;28;20022;-80
2021/01/07 01:09:46;;;;;;;35.67;17.70;;;;;;;;;;5013423;28;20018;-80
2021/01/07 01:12:12;;;;;;;33.03;16.40;;;;;;;;;;5013790;28;20021;-80
2021/01/07 01:14:37;;;;;;;37.10;17.37;;;;;;;;;;5015461;28;20102;-80
2021/01/07 01:17:02;;;;;;;32.20;16.20;;;;;;;;;;5013974;28;20022;-80
2021/01/07 01:19:27;;;;;;;38.53;16.87;;;;;;;;;;5014977;28;20006;-80
2021/01/07 01:21:53;;;;;;;33.57;17.23;;;;;;;;;;5015022;28;20372;-80
2021/01/07 01:24:18;;;;;;;35.23;16.93;;;;;;;;;;5013393;28;20487;-80
2021/01/07 01:26:44;;;;;;;29.07;16.10;;;;;;;;;;5013818;28;20103;-80
2021/01/07 01:29:09;;;;;;;35.17;16.73;;;;;;;;;;5013273;28;20432;-80
2021/01/07 01:31:40;;;;;;;41.90;16.53;;;;;;;;;;5014645;28;20028;-80
2021/01/07 01:34:08;;;;;;;34.87;15.77;;;;;;;;;;5013723;28;20022;-80
2021/01/07 01:36:33;;;;;;;36.07;16.50;;;;;;;;;;5013147;28;20105;-80
2021/01/07 01:38:59;;;;;;;33.23;17.13;;;;;;;;;;5014994;28;20049;-79
2021/01/07 01:41:24;;;;;;;33.27;16.77;;;;;;;;;;5029876;28;20478;-80
2021/01/07 01:43:49;;;;;;;37.93;16.17;;;;;;;;;;5009068;28;20023;-80
2021/01/07 01:46:14;;;;;;;35.37;17.43;;;;;;;;;;5008388;28;20464;-80
2021/01/07 01:48:40;;;;;;;30.63;15.67;;;;;;;;;;5013522;28;20028;-80
2021/01/07 01:51:06;;;;;;;34.03;15.83;;;;;;;;;;5013187;28;20033;-79
2021/01/07 01:53:31;;;;;;;36.43;18.47;;;;;;;;;;5012856;28;20497;-79
2021/01/07 01:55:59;;;;;;;33.60;16.17;;;;;;;;;;5014450;28;20018;-80
2021/01/07 01:58:24;;;;;;;36.93;17.07;;;;;;;;;;5012615;28;20017;-80
2021/01/07 02:00:49;;;;;;;30.10;16.43;;;;;;;;;;5012577;28;20018;-80
2021/01/07 02:03:14;;;;;;;30.07;15.77;;;;;;;;;;5013044;28;20376;-80
2021/01/07 02:05:39;;;;;;;31.70;15.53;;;;;;;;;;5013883;28;20353;-80
2021/01/07 02:08:06;;;;;;;32.80;15.63;;;;;;;;;;5012621;28;20499;-80
2021/01/07 02:10:32;;;;;;;31.50;16.13;;;;;;;;;;5012504;28;20061;-80
2021/01/07 02:12:58;;;;;;;32.40;16.13;;;;;;;;;;5014209;28;20018;-79
2021/01/07 02:15:23;;;;;;;33.93;15.80;;;;;;;;;;5012782;28;20369;-80
2021/01/07 02:17:48;;;;;;;34.67;17.13;;;;;;;;;;5012483;28;20017;-80
2021/01/07 02:20:14;;;;;;;32.37;16.70;;;;;;;;;;5012470;28;20120;-80
2021/01/07 02:22:40;;;;;;;32.53;17.47;;;;;;;;;;5012707;28;20542;-80
2021/01/07 02:25:06;;;;;;;33.87;15.97;;;;;;;;;;5013856;28;20022;-80
2021/01/07 02:27:31;;;;;;;31.40;15.63;;;;;;;;;;5012519;28;20018;-80
2021/01/07 02:29:56;;;;;;;35.33;16.80;;;;;;;;;;5009867;28;20030;-80
2021/01/07 02:32:21;;;;;;;34.27;16.57;;;;;;;;;;5010409;28;20084;-80
2021/01/07 02:34:47;;;;;;;36.30;17.00;;;;;;;;;;5011201;28;20018;-80
2021/01/07 02:37:12;;;;;;;32.77;17.63;;;;;;;;;;5009302;28;20049;-80
2021/01/07 02:39:37;;;;;;;35.40;17.23;;;;;;;;;;5013382;28;20368;-79
2021/01/07 02:42:02;;;;;;;34.60;17.47;;;;;;;;;;5013806;28;20445;-79
2021/01/07 02:44:28;;;;;;;35.93;18.50;;;;;;;;;;5012027;28;20021;-79
2021/01/07 02:46:53;;;;;;;34.77;17.90;;;;;;;;;;5012086;28;20018;-80
2021/01/07 02:49:18;;;;;;;32.30;16.87;;;;;;;;;;5012334;28;20017;-80
2021/01/07 02:51:44;;;;;;;30.60;15.40;;;;;;;;;;5011515;28;20022;-80
2021/01/07 02:54:09;;;;;;;31.90;16.90;;;;;;;;;;5012251;28;20018;-80
2021/01/07 02:56:34;;;;;;;33.17;15.90;;;;;;;;;;5028446;28;20018;-80
2021/01/07 02:59:00;;;;;;;33.67;16.00;;;;;;;;;;5011967;28;20044;-80
2021/01/07 03:01:26;;;;;;;32.67;14.77;;;;;;;;;;5013312;28;20025;-80
2021/01/07 03:03:51;;;;;;;31.03;16.10;;;;;;;;;;5013037;28;20440;-80
2021/01/07 03:06:16;;;;;;;32.30;16.07;;;;;;;;;;5013088;28;20503;-79
2021/01/07 03:08:41;;;;;;;32.40;16.57;;;;;;;;;;5010184;28;20050;-80
2021/01/07 03:11:07;;;;;;;31.13;16.23;;;;;;;;;;5011649;28;20026;-79
2021/01/07 03:13:32;;;;;;;32.23;16.90;;;;;;;;;;5013120;28;20084;-80
2021/01/07 03:15:57;;;;;;;32.37;15.80;;;;;;;;;;5012872;28;20441;-80
2021/01/07 03:18:22;;;;;;;28.40;15.10;;;;;;;;;;5012448;28;20010;-80
2021/01/07 03:20:48;;;;;;;33.60;15.17;;;;;;;;;;5010950;28;20101;-80
2021/01/07 03:23:13;;;;;;;27.07;14.67;;;;;;;;;;5011413;28;20033;-80
2021/01/07 03:25:38;;;;;;;31.23;16.93;;;;;;;;;;5011451;28;20022;-80
2021/01/07 03:28:03;;;;;;;33.10;16.80;;;;;;;;;;5011591;28;20053;-80
2021/01/07 03:30:28;;;;;;;35.57;18.23;;;;;;;;;;5027703;28;20032;-80
2021/01/07 03:32:54;;;;;;;33.87;16.53;;;;;;;;;;5011320;28;20109;-80
2021/01/07 03:35:19;;;;;;;35.60;16.40;;;;;;;;;;5003191;28;20030;-80
2021/01/07 03:37:44;;;;;;;35.47;16.43;;;;;;;;;;5012275;28;20089;-80
2021/01/07 03:40:10;;;;;;;34.97;17.07;;;;;;;;;;5011039;28;20030;-79
2021/01/07 03:42:35;;;;;;;33.23;16.93;;;;;;;;;;5011371;28;20117;-80
2021/01/07 03:45:00;;;;;;;31.90;15.63;;;;;;;;;;5011105;28;20360;-80
2021/01/07 03:47:25;;;;;;;27.80;14.80;;;;;;;;;;5011450;28;20036;-80
2021/01/07 03:49:51;;;;;;;28.67;15.20;;;;;;;;;;5010501;28;20038;-80
2021/01/07 03:52:16;;;;;;;32.53;15.47;;;;;;;;;;5011115;28;20054;-80
2021/01/07 03:54:41;;;;;;;34.20;17.63;;;;;;;;;;5012357;28;20141;-79
2021/01/07 03:57:07;;;;;;;30.47;15.93;;;;;;;;;;5011143;28;20391;-80
2021/01/07 03:59:32;;;;;;;32.60;15.27;;;;;;;;;;5010585;28;20535;-88
2021/01/07 04:01:57;;;;;;;27.90;14.77;;;;;;;;;;5012217;28;20014;-88
2021/01/07 04:04:23;;;;;;;31.80;15.77;;;;;;;;;;5011820;28;20449;-87
2021/01/07 04:06:48;;;;;;;27.47;15.13;;;;;;;;;;5011038;28;20120;-88
2021/01/07 04:09:13;;;;;;;27.50;13.53;;;;;;;;;;5012264;28;20444;-88
2021/01/07 04:11:38;;;;;;;27.00;14.27;;;;;;;;;;5010618;28;20109;-88
2021/01/07 04:14:03;;;;;;;30.03;15.40;;;;;;;;;;5019652;28;20035;-88
2021/01/07 04:16:28;;;;;;;27.00;14.13;;;;;;;;;;5018833;28;20018;-88
2021/01/07 04:18:54;;;;;;;29.40;14.43;;;;;;;;;;5025757;28;20017;-86
2021/01/07 04:21:19;;;;;;;29.80;14.87;;;;;;;;;;5010667;28;20018;-88
2021/01/07 04:23:44;;;;;;;30.07;14.20;;;;;;;;;;5012040;28;20371;-87
2021/01/07 04:26:10;;;;;;;26.97;13.73;;;;;;;;;;5011016;28;20022;-88
2021/01/07 04:28:35;;;;;;;30.07;14.70;;;;;;;;;;5008112;28;20046;-87
2021/01/07 04:31:01;;;;;;;30.23;15.60;;;;;;;;;;5010843;28;20034;-88
2021/01/07 04:33:26;;;;;;;30.90;16.10;;;;;;;;;;5010745;28;20437;-88
2021/01/07 04:35:51;;;;;;;32.57;16.07;;;;;;;;;;5014499;28;20056;-88
2021/01/07 04:38:16;;;;;;;29.20;16.67;;;;;;;;;;5022235;28;20314;-88
2021/01/07 04:40:41;;;;;;;29.20;15.77;;;;;;;;;;5012105;28;20018;-89
2021/01/07 04:43:07;;;;;;;28.77;15.07;;;;;;;;;;5011953;28;20018;-88
2021/01/07 04:45:32;;;;;;;31.40;16.27;;;;;;;;;;5011731;28;20022;-88
2021/01/07 04:47:57;;;;;;;36.23;16.50;;;;;;;;;;5010640;28;20022;-87
2021/01/07 04:50:22;;;;;;;31.10;15.17;;;;;;;;;;5010337;28;20429;-88
2021/01/07 04:52:47;;;;;;;32.13;16.03;;;;;;;;;;5010473;28;20028;-88
2021/01/07 04:55:13;;;;;;;38.00;14.80;;;;;;;;;;5019716;28;20032;-88
2021/01/07 04:57:38;;;;;;;29.40;15.00;;;;;;;;;;5016413;28;20022;-88
2021/01/07 05:00:05;;;;;;;27.37;14.67;;;;;;;;;;5009684;28;20764;-88
2021/01/07 05:02:30;;;;;;;28.83;13.90;;;;;;;;;;5010433;28;20116;-88
2021/01/07 05:04:55;;;;;;;26.67;14.53;;;;;;;;;;5010134;28;20118;-88
2021/01/07 05:07:21;;;;;;;28.10;14.83;;;;;;;;;;5011517;28;20367;-88
2021/01/07 05:09:47;;;;;;;27.10;14.93;;;;;;;;;;5012356;28;20022;-88
2021/01/07 05:12:13;;;;;;;25.87;14.23;;;;;;;;;;5022096;28;20379;-89
2021/01/07 05:14:45;;;;;;;27.93;14.10;;;;;;;;;;5011203;28;20030;-88
2021/01/07 05:17:11;;;;;;;30.98;14.75;;;;;;;;;;5011657;28;20445;-87
2021/01/07 05:19:37;;;;;;;26.77;14.57;;;;;;;;;;5011813;28;20018;-88
2021/01/07 05:22:02;;;;;;;30.23;16.27;;;;;;;;;;5010590;28;20373;-88
2021/01/07 05:24:27;;;;;;;30.23;14.63;;;;;;;;;;5003362;28;20062;-88
2021/01/07 05:26:53;;;;;;;29.57;15.43;;;;;;;;;;5009154;28;20057;-88
2021/01/07 05:29:18;;;;;;;26.70;14.00;;;;;;;;;;5010343;28;20105;-88
2021/01/07 05:31:49;;;;;;;27.17;15.20;;;;;;;;;;5001236;28;20421;-88
2021/01/07 05:34:15;;;;;;;27.60;14.80;;;;;;;;;;5010302;28;20029;-88
2021/01/07 05:36:40;;;;;;;28.10;15.20;;;;;;;;;;5010081;28;20076;-88
2021/01/07 05:39:06;;;;;;;26.60;15.10;;;;;;;;;;5025628;28;20475;-88
2021/01/07 05:41:35;;;;;;;27.47;16.53;;;;;;;;;;5011262;28;20376;-88
2021/01/07 05:44:08;;;;;;;27.77;14.97;;;;;;;;;;5013579;28;20025;-88
2021/01/07 05:46:34;;;;;;;26.30;14.33;;;;;;;;;;5013860;28;20036;-88
2021/01/07 05:48:59;;;;;;;26.67;15.60;;;;;;;;;;5015273;28;20014;-88
2021/01/07 05:51:28;;;;;;;25.63;14.30;;;;;;;;;;5013696;28;20298;-88
2021/01/07 05:53:54;;;;;;;26.50;14.80;;;;;;;;;;5012888;28;20026;-88
2021/01/07 05:56:21;;;;;;;24.30;14.37;;;;;;;;;;5014869;28;20208;-88
2021/01/07 05:58:50;;;;;;;25.23;13.97;;;;;;;;;;5013619;28;20381;-86
2021/01/07 06:01:19;;;;;;;25.77;15.17;;;;;;;;;;5012807;28;20365;-88
2021/01/07 06:03:46;;;;;;;24.30;13.93;;;;;;;;;;5014537;28;20026;-88
2021/01/07 06:06:11;;;;;;;25.40;13.93;;;;;;;;;;5008147;28;20514;-88
2021/01/07 06:08:37;;;;;;;26.47;14.10;;;;;;;;;;5021520;28;20092;-88
2021/01/07 06:11:03;;;;;;;25.93;14.37;;;;;;;;;;5021817;28;20022;-88
2021/01/07 06:13:29;;;;;;;29.40;15.87;;;;;;;;;;5014436;28;20121;-87
2021/01/07 06:15:54;;;;;;;28.10;15.47;;;;;;;;;;5013088;28;20956;-88
2021/01/07 06:18:23;;;;;;;27.47;15.33;;;;;;;;;;5013259;28;20157;-88
2021/01/07 06:20:59;;;;;;;25.70;15.10;;;;;;;;;;5014402;28;20048;-88
2021/01/07 06:23:29;;;;;;;28.47;13.13;;;;;;;;;;5012928;28;20026;-88
2021/01/07 06:26:14;;;;;;;23.93;14.33;;;;;;;;;;5013177;28;20372;-87
2021/01/07 06:28:39;;;;;;;25.33;14.27;;;;;;;;;;5012835;28;20014;-88
2021/01/07 06:31:12;;;;;;;26.30;14.80;;;;;;;;;;5012654;28;20036;-88
2021/01/07 06:33:38;;;;;;;23.23;13.10;;;;;;;;;;5012681;28;20022;-88
2021/01/07 06:36:06;;;;;;;26.00;13.43;;;;;;;;;;5012239;28;20780;-88
2021/01/07 06:38:33;;;;;;;23.50;14.07;;;;;;;;;;5012408;28;20025;-88
2021/01/07 06:41:00;;;;;;;25.70;13.97;;;;;;;;;;5013830;28;20049;-88
2021/01/07 06:43:25;;;;;;;25.23;13.70;;;;;;;;;;5013852;28;20419;-88
2021/01/07 06:45:52;;;;;;;24.60;13.70;;;;;;;;;;5012241;28;20030;-88
2021/01/07 06:48:24;;;;;;;26.90;13.37;;;;;;;;;;5012801;28;20529;-89
2021/01/07 06:50:52;;;;;;;27.40;13.85;;;;;;;;;;5012359;28;20029;-88
2021/01/07 06:53:18;;;;;;;25.30;14.83;;;;;;;;;;5012300;28;20046;-89
2021/01/07 06:56:03;;;;;;;23.70;13.47;;;;;;;;;;5012059;28;20129;-89
2021/01/07 06:58:28;;;;;;;25.63;13.00;;;;;;;;;;5013562;28;20022;-89
2021/01/07 07:00:54;;;;;;;24.80;15.20;;;;;;;;;;5016503;28;20480;-88
2021/01/07 07:03:20;;;;;;;23.43;13.07;;;;;;;;;;5011433;28;20022;-88
2021/01/07 07:05:52;;;;;;;27.67;14.00;;;;;;;;;;5019744;28;20388;-88
2021/01/07 07:08:32;;;;;;;28.50;13.63;;;;;;;;;;5011139;28;20030;-89
2021/01/07 07:10:58;;;;;;;31.13;14.17;;;;;;;;;;5008652;28;20030;-88
2021/01/07 07:13:26;;;;;;;26.17;14.27;;;;;;;;;;5006982;28;20018;-88
2021/01/07 07:15:52;;;;;;;27.10;15.13;;;;;;;;;;5004839;28;20037;-88
2021/01/07 07:18:37;;;;;;;24.73;14.23;;;;;;;;;;5002784;28;20021;-88
2021/01/07 07:21:21;;;;;;;23.90;13.10;;;;;;;;;;5007782;28;20029;-88
2021/01/07 07:23:46;;;;;;;27.30;15.30;;;;;;;;;;5003129;28;20037;-88
2021/01/07 07:26:30;;;;;;;28.00;14.63;;;;;;;;;;4997404;28;20037;-86
2021/01/07 07:28:56;;;;;;;23.73;13.30;;;;;;;;;;5027290;28;20029;-87
2021/01/07 07:31:38;;;;;;;26.43;15.57;;;;;;;;;;5014475;28;20057;-87
2021/01/07 07:34:03;;;;;;;28.07;16.40;;;;;;;;;;5005588;28;20467;-87
2021/01/07 07:36:29;;;;;;;27.47;14.83;;;;;;;;;;5030963;28;20030;-87
2021/01/07 07:38:55;;;;;;;25.80;16.10;;;;;;;;;;5010045;28;20029;-87
2021/01/07 07:41:25;;;;;;;27.53;14.20;;;;;;;;;;5012347;28;20029;-87
2021/01/07 07:43:52;;;;;;;24.37;13.50;;;;;;;;;;5009692;28;20061;-87
2021/01/07 07:46:22;;;;;;;25.67;13.40;;;;;;;;;;5015954;28;20041;-87
2021/01/07 07:48:48;;;;;;;27.10;14.60;;;;;;;;;;5008470;28;20057;-87
2021/01/07 07:51:13;;;;;;;25.03;13.70;;;;;;;;;;5014060;28;20052;-88
2021/01/07 07:53:39;;;;;;;28.23;14.57;;;;;;;;;;5010278;28;20033;-86
2021/01/07 07:56:04;;;;;;;29.63;13.27;;;;;;;;;;5012749;28;20025;-86
2021/01/07 07:58:30;;;;;;;26.97;13.67;;;;;;;;;;5009292;28;20056;-86
2021/01/07 08:00:56;;;;;;;29.13;14.37;;;;;;;;;;5012630;28;21150;-86
2021/01/07 08:03:31;;;;;;;31.00;16.57;;;;;;;;;;5011703;28;20029;-86
2021/01/07 08:06:00;;;;;;;28.53;15.20;;;;;;;;;;5026094;28;20033;-85
2021/01/07 08:08:26;;;;;;;29.60;15.10;;;;;;;;;;5014526;28;20103;-86
2021/01/07 08:10:52;;;;;;;31.40;15.20;;;;;;;;;;5009603;28;20026;-86
2021/01/07 08:13:18;;;;;;;30.57;14.57;;;;;;;;;;5009267;28;20022;-86
2021/01/07 08:15:51;;;;;;;31.30;15.13;;;;;;;;;;5012613;28;20021;-85
2021/01/07 08:18:16;;;;;;;29.17;14.07;;;;;;;;;;5007507;28;20022;-86
2021/01/07 08:20:42;;;;;;;31.00;15.27;;;;;;;;;;5019936;28;20109;-86
2021/01/07 08:23:08;;;;;;;32.30;18.13;;;;;;;;;;5017177;28;20495;-85
2021/01/07 08:25:33;;;;;;;30.93;15.90;;;;;;;;;;5010396;28;20487;-86
2021/01/07 08:28:20;;;;;;;29.30;15.47;;;;;;;;;;5017074;28;20037;-86
2021/01/07 08:30:48;;;;;;;32.47;14.93;;;;;;;;;;5011621;28;20037;-86
2021/01/07 08:33:15;;;;;;;26.90;14.47;;;;;;;;;;5005009;28;20035;-86
2021/01/07 08:35:40;;;;;;;29.63;15.10;;;;;;;;;;5012726;28;20097;-86
2021/01/07 08:38:05;;;;;;;31.03;15.50;;;;;;;;;;5018157;28;20110;-86
2021/01/07 08:40:31;;;;;;;27.90;13.97;;;;;;;;;;5009450;28;20391;-86
2021/01/07 08:42:57;;;;;;;31.83;14.97;;;;;;;;;;5017015;28;20400;-86
2021/01/07 08:45:26;;;;;;;26.23;14.77;;;;;;;;;;5025524;28;20116;-85
2021/01/07 08:47:52;;;;;;;30.07;15.83;;;;;;;;;;5007543;28;20084;-87
2021/01/07 08:50:19;;;;;;;25.10;14.13;;;;;;;;;;5010812;28;20030;-86
2021/01/07 08:52:47;;;;;;;24.23;14.13;;;;;;;;;;5017921;28;20076;-86
2021/01/07 08:55:13;;;;;;;26.43;13.40;;;;;;;;;;5017144;28;20092;-87
2021/01/07 08:57:38;;;;;;;21.67;11.33;;;;;;;;;;5012681;28;20017;-86
2021/01/07 09:00:12;;;;;;;21.20;10.90;;;;;;;;;;5017640;28;20033;-86
2021/01/07 09:02:37;;;;;;;19.70;11.00;;;;;;;;;;5009017;28;20104;-86
2021/01/07 09:05:03;;;;;;;20.03;11.27;;;;;;;;;;5011784;28;20045;-86
2021/01/07 09:07:28;;;;;;;19.80;9.80;;;;;;;;;;5013520;28;20033;-85
2021/01/07 09:09:54;;;;;;;17.57;9.80;;;;;;;;;;5016770;28;20048;-85
2021/01/07 09:12:23;;;;;;;15.43;8.63;;;;;;;;;;5005838;28;20077;-86
2021/01/07 09:15:10;;;;;;;14.87;9.17;;;;;;;;;;5005989;28;20017;-86
2021/01/07 09:17:38;;;;;;;17.53;9.73;;;;;;;;;;5011413;28;20467;-87
2021/01/07 09:20:10;;;;;;;15.53;9.63;;;;;;;;;;5024716;28;20389;-86
2021/01/07 09:22:36;;;;;;;17.30;9.02;;;;;;;;;;5003184;28;20291;-87
2021/01/07 09:25:01;;;;;;;18.63;9.20;;;;;;;;;;5012129;28;20119;-87
2021/01/07 09:27:26;;;;;;;16.37;9.30;;;;;;;;;;5012442;28;20506;-87
2021/01/07 09:29:52;;;;;;;15.37;9.03;;;;;;;;;;5011677;28;20141;-87
2021/01/07 09:32:17;;;;;;;17.37;10.70;;;;;;;;;;5013673;28;20125;-87
2021/01/07 09:34:43;;;;;;;17.67;10.13;;;;;;;;;;5012914;28;20029;-86
2021/01/07 09:37:10;;;;;;;17.30;10.77;;;;;;;;;;5012183;28;20022;-87
2021/01/07 09:39:36;;;;;;;20.17;11.90;;;;;;;;;;5008782;28;20021;-86
2021/01/07 09:42:01;;;;;;;22.17;12.87;;;;;;;;;;5007803;28;20025;-87
2021/01/07 09:44:26;;;;;;;23.43;13.93;;;;;;;;;;5007310;28;20026;-87
2021/01/07 09:46:52;;;;;;;23.67;13.30;;;;;;;;;;5010233;28;20540;-85
2021/01/07 09:49:17;;;;;;;21.30;12.87;;;;;;;;;;5005135;28;20022;-85
2021/01/07 09:51:42;;;;;;;26.33;13.80;;;;;;;;;;5003483;28;20448;-88
2021/01/07 09:54:08;;;;;;;22.73;12.30;;;;;;;;;;5008882;28;20049;-85
2021/01/07 09:56:33;;;;;;;23.23;12.97;;;;;;;;;;5008577;28;20026;-86
2021/01/07 09:58:58;;;;;;;22.20;12.33;;;;;;;;;;5011768;28;20018;-85
2021/01/07 10:01:23;;;;;;;22.20;13.70;;;;;;;;;;5006069;28;20019;-86
2021/01/07 10:03:49;;;;;;;24.90;13.83;;;;;;;;;;5009988;28;20471;-85
2021/01/07 10:06:14;;;;;;;25.43;14.07;;;;;;;;;;5008110;28;20355;-85
2021/01/07 10:08:39;;;;;;;28.27;15.00;;;;;;;;;;5010469;28;20049;-86
2021/01/07 10:11:05;;;;;;;26.10;13.03;;;;;;;;;;5002362;28;20034;-86
2021/01/07 10:13:30;;;;;;;29.70;16.07;;;;;;;;;;4998837;28;20392;-86
2021/01/07 10:15:55;;;;;;;29.70;16.07;;;;;;;;;;5011431;28;20033;-84
2021/01/07 10:18:20;;;;;;;29.67;17.33;;;;;;;;;;5013521;28;20022;-84
2021/01/07 10:20:45;;;;;;;27.97;14.73;;;;;;;;;;5013369;28;20088;-84
2021/01/07 10:23:11;;;;;;;25.70;13.63;;;;;;;;;;5013923;28;20039;-84
2021/01/07 10:25:36;;;;;;;27.17;13.97;;;;;;;;;;5011584;28;20464;-85
2021/01/07 10:28:02;;;;;;;35.53;18.20;;;;;;;;;;5006485;28;20054;-85
2021/01/07 10:30:27;;;;;;;39.33;16.33;;;;;;;;;;5013131;28;20084;-86
2021/01/07 10:32:53;;;;;;;38.93;17.57;;;;;;;;;;5007078;28;20091;-86
2021/01/07 10:35:20;;;;;;;25.17;13.67;;;;;;;;;;5005741;28;20655;-86
2021/01/07 10:37:45;;;;;;;30.70;14.07;;;;;;;;;;5003312;28;20045;-86
2021/01/07 10:40:13;;;;;;;27.30;14.27;;;;;;;;;;5011485;28;20088;-85
2021/01/07 10:42:39;;;;;;;26.20;13.03;;;;;;;;;;5007501;28;20022;-86
2021/01/07 10:45:04;;;;;;;26.27;12.97;;;;;;;;;;5010572;28;20413;-86
2021/01/07 10:47:37;;;;;;;25.77;13.53;;;;;;;;;;5012593;28;20429;-83
2021/01/07 10:50:03;;;;;;;22.88;12.02;;;;;;;;;;5005351;28;20116;-83
2021/01/07 10:52:44;;;;;;;21.80;11.70;;;;;;;;;;5005215;28;20117;-85
2021/01/07 10:55:13;;;;;;;22.00;12.50;;;;;;;;;;5007466;28;20024;-85
2021/01/07 10:57:44;;;;;;;21.37;12.83;;;;;;;;;;5011574;28;20354;-85
2021/01/07 11:00:10;;;;;;;25.15;14.10;;;;;;;;;;5003537;28;20025;-85
2021/01/07 11:02:44;;;;;;;22.53;12.03;;;;;;;;;;5012030;28;20461;-86
2021/01/07 11:05:13;;;;;;;23.93;11.80;;;;;;;;;;5000775;28;20076;-86
2021/01/07 11:07:44;;;;;;;24.20;12.03;;;;;;;;;;5011962;28;20024;-86
2021/01/07 11:10:10;;;;;;;22.37;11.00;;;;;;;;;;5021913;28;20034;-86
2021/01/07 11:12:47;;;;;;;21.63;11.20;;;;;;;;;;4999842;28;20011;-86
2021/01/07 11:15:16;;;;;;;20.63;10.60;;;;;;;;;;5009972;28;20006;-85
2021/01/07 11:17:48;;;;;;;21.90;12.73;;;;;;;;;;5010672;28;20022;-86
2021/01/07 11:20:14;;;;;;;20.63;12.07;;;;;;;;;;5005767;28;20120;-86
2021/01/07 11:22:40;;;;;;;22.43;12.13;;;;;;;;;;5006368;28;20129;-86
2021/01/07 11:25:07;;;;;;;23.53;12.20;;;;;;;;;;5010297;28;20401;-86
2021/01/07 11:27:33;;;;;;;26.50;13.43;;;;;;;;;;5006675;28;20068;-86
2021/01/07 11:30:00;;;;;;;23.03;12.23;;;;;;;;;;5007238;28;20425;-86
2021/01/07 11:32:27;;;;;;;26.13;12.40;;;;;;;;;;5010571;28;20014;-85
2021/01/07 11:34:53;;;;;;;22.93;13.20;;;;;;;;;;5011157;28;20018;-86
2021/01/07 11:37:38;;;;;;;26.60;13.87;;;;;;;;;;5008253;28;20009;-85
2021/01/07 11:40:05;;;;;;;23.23;12.60;;;;;;;;;;5010230;28;20384;-85
2021/01/07 11:42:36;;;;;;;22.33;13.03;;;;;;;;;;5011688;28;20022;-86
2021/01/07 11:45:03;;;;;;;25.33;11.73;;;;;;;;;;5011226;28;20030;-86
2021/01/07 11:47:31;;;;;;;23.40;11.83;;;;;;;;;;5008795;28;20077;-86
2021/01/07 11:49:57;;;;;;;26.33;11.63;;;;;;;;;;5005797;28;20346;-86
2021/01/07 11:52:23;;;;;;;21.23;11.60;;;;;;;;;;5006766;28;20495;-86
2021/01/07 11:54:50;;;;;;;21.67;10.70;;;;;;;;;;5017197;28;20045;-86
2021/01/07 11:57:16;;;;;;;16.77;11.23;;;;;;;;;;5020583;28;20022;-85
2021/01/07 11:59:41;;;;;;;17.93;10.13;;;;;;;;;;5014348;28;20029;-86
2021/01/07 12:02:10;;;;;;;23.37;10.67;;;;;;;;;;5012399;28;20079;-87
2021/01/07 12:04:36;;;;;;;20.77;10.77;;;;;;;;;;5017210;28;20389;-86
2021/01/07 12:07:03;;;;;;;20.10;11.60;;;;;;;;;;5011857;28;20052;-86
2021/01/07 12:09:41;;;;;;;16.87;9.97;;;;;;;;;;5009024;28;20022;-86
2021/01/07 12:12:13;;;;;;;19.13;10.20;;;;;;;;;;4998591;28;20097;-86
2021/01/07 12:14:49;;;;;;;19.60;11.20;;;;;;;;;;5011277;28;20085;-86
2021/01/07 12:17:14;;;;;;;21.90;10.00;;;;;;;;;;5002514;28;20045;-86
2021/01/07 12:19:40;;;;;;;19.77;9.60;;;;;;;;;;5010382;28;20054;-85
2021/01/07 12:22:06;;;;;;;17.53;9.93;;;;;;;;;;5009048;28;20113;-85
2021/01/07 12:24:32;;;;;;;17.90;10.20;;;;;;;;;;5013091;28;20056;-86
2021/01/07 12:26:58;;;;;;;19.90;9.93;;;;;;;;;;5010489;28;20022;-85
2021/01/07 12:29:24;;;;;;;19.70;9.33;;;;;;;;;;5010710;28;20029;-86
2021/01/07 12:31:52;;;;;;;20.10;8.77;;;;;;;;;;5009080;28;20021;-86
2021/01/07 12:34:34;;;;;;;18.97;8.87;;;;;;;;;;5010209;28;20026;-86
2021/01/07 12:37:19;;;;;;;24.23;9.80;;;;;;;;;;5011781;28;20409;-86
2021/01/07 12:39:50;;;;;;;33.20;9.30;;;;;;;;;;5010613;28;20255;-85
2021/01/07 12:42:28;;;;;;;17.47;8.80;;;;;;;;;;5007208;28;20770;-86
2021/01/07 12:44:54;;;;;;;18.03;7.90;;;;;;;;;;4999382;28;20058;-86
2021/01/07 12:47:20;;;;;;;16.20;8.30;;;;;;;;;;5002742;28;20112;-86
2021/01/07 12:49:47;;;;;;;18.37;8.07;;;;;;;;;;4998579;28;20097;-86
2021/01/07 12:52:12;;;;;;;18.03;7.07;;;;;;;;;;5010137;28;20037;-86
2021/01/07 12:54:37;;;;;;;18.90;6.90;;;;;;;;;;5022423;28;20021;-86
2021/01/07 12:57:10;;;;;;;24.27;7.20;;;;;;;;;;5025986;28;20040;-85
2021/01/07 12:59:39;;;;;;;12.13;6.63;;;;;;;;;;5022879;28;20022;-85
2021/01/07 13:02:20;;;;;;;17.30;5.93;;;;;;;;;;5007609;28;20455;-86
2021/01/07 13:04:55;;;;;;;12.93;5.80;;;;;;;;;;5023977;28;20422;-85
2021/01/07 13:07:20;;;;;;;16.03;5.30;;;;;;;;;;5011508;28;20490;-85
2021/01/07 13:09:46;;;;;;;14.17;5.43;;;;;;;;;;5013655;28;20101;-85
2021/01/07 13:12:11;;;;;;;12.47;4.90;;;;;;;;;;5020512;28;20108;-85
2021/01/07 13:14:37;;;;;;;16.37;4.90;;;;;;;;;;5024599;28;20044;-84
2021/01/07 13:17:02;;;;;;;12.50;4.80;;;;;;;;;;5012732;28;20025;-85
2021/01/07 13:19:28;;;;;;;14.07;4.57;;;;;;;;;;5016824;28;20030;-86
2021/01/07 13:21:53;;;;;;;17.77;4.67;;;;;;;;;;5021141;28;20018;-85
2021/01/07 13:24:19;;;;;;;10.80;4.40;;;;;;;;;;5021519;28;20025;-85
2021/01/07 13:26:44;;;;;;;13.87;4.63;;;;;;;;;;5022805;28;20018;-85
2021/01/07 13:29:10;;;;;;;13.00;4.40;;;;;;;;;;5010808;28;20018;-85
2021/01/07 13:31:35;;;;;;;12.30;4.50;;;;;;;;;;5011958;28;20372;-85
2021/01/07 13:34:00;;;;;;;14.93;4.90;;;;;;;;;;5010559;28;20022;-86
2021/01/07 13:36:26;;;;;;;12.27;4.63;;;;;;;;;;5012477;28;20465;-86
2021/01/07 13:38:51;;;;;;;17.13;4.90;;;;;;;;;;5020948;28;20031;-85
2021/01/07 13:41:17;;;;;;;10.20;4.17;;;;;;;;;;5013949;28;20072;-85
2021/01/07 13:43:43;;;;;;;13.43;4.43;;;;;;;;;;5009646;28;20046;-85
2021/01/07 13:46:11;;;;;;;11.13;4.60;;;;;;;;;;5011491;28;20108;-85
2021/01/07 13:48:40;;;;;;;14.23;4.00;;;;;;;;;;5016888;28;20472;-86
2021/01/07 13:51:08;;;;;;;16.47;4.93;;;;;;;;;;5006971;28;20022;-86
2021/01/07 13:53:34;;;;;;;12.07;4.70;;;;;;;;;;5010870;28;20050;-86
2021/01/07 13:56:00;;;;;;;12.90;4.47;;;;;;;;;;5011909;28;20053;-86
2021/01/07 13:58:25;;;;;;;15.17;5.17;;;;;;;;;;5023717;28;20029;-86
2021/01/07 14:00:50;;;;;;;14.63;4.10;;;;;;;;;;5008117;28;20776;-86
2021/01/07 14:03:16;;;;;;;13.27;4.90;;;;;;;;;;5023099;28;20025;-86
2021/01/07 14:05:42;;;;;;;11.60;4.10;;;;;;;;;;5015901;28;20507;-87
2021/01/07 14:08:18;;;;;;;9.67;4.07;;;;;;;;;;5007700;28;20025;-86
2021/01/07 14:10:43;;;;;;;11.57;3.97;;;;;;;;;;5007001;28;20091;-86
2021/01/07 14:13:09;;;;;;;17.10;4.83;;;;;;;;;;5013497;28;20316;-86
2021/01/07 14:15:34;;;;;;;14.13;4.83;;;;;;;;;;5008664;28;20030;-86
2021/01/07 14:18:02;;;;;;;14.57;4.67;;;;;;;;;;5005290;28;20014;-86